createdAt,value
2023-09-19T00:00:52.414Z,20.09
2023-09-19T00:03:20.171Z,19.99
2023-09-19T00:05:48.679Z,19.99
2023-09-19T00:08:16.348Z,20.03
2023-09-19T00:10:44.833Z,20.01
2023-09-19T00:13:16.641Z,19.94
2023-09-19T00:15:51.164Z,19.89
2023-09-19T00:18:25.315Z,19.84
2023-09-19T00:20:53.990Z,19.83
2023-09-19T00:23:22.050Z,19.80
2023-09-19T00:25:52.018Z,19.81
2023-09-19T00:28:20.874Z,19.79
2023-09-19T00:30:51.733Z,19.80
2023-09-19T00:33:20.483Z,19.78
2023-09-19T00:35:53.461Z,19.75
2023-09-19T00:38:23.792Z,19.73
2023-09-19T00:40:54.659Z,19.72
2023-09-19T00:43:25.114Z,19.68
2023-09-19T00:45:56.419Z,19.72
2023-09-19T00:48:26.126Z,19.72
2023-09-19T00:50:55.029Z,19.74
2023-09-19T00:53:24.865Z,19.73
2023-09-19T00:55:53.474Z,19.72
2023-09-19T00:58:21.579Z,19.74
2023-09-19T01:00:50.521Z,19.73
2023-09-19T01:03:20.129Z,19.72
2023-09-19T01:05:48.266Z,19.70
2023-09-19T01:08:15.869Z,19.70
2023-09-19T01:11:33.748Z,19.67
2023-09-19T01:14:31.650Z,19.68
2023-09-19T01:17:23.844Z,19.66
2023-09-19T01:20:16.103Z,19.63
2023-09-19T01:23:08.267Z,19.62
2023-09-19T01:25:58.574Z,19.61
2023-09-19T01:28:44.422Z,19.59
2023-09-19T01:31:13.253Z,19.60
2023-09-19T01:34:02.049Z,19.56
2023-09-19T01:36:37.549Z,19.56
2023-09-19T01:39:10.191Z,19.49
2023-09-19T01:42:19.123Z,19.48
2023-09-19T01:45:17.687Z,19.48
2023-09-19T01:47:59.190Z,19.47
2023-09-19T01:50:45.039Z,19.45
2023-09-19T01:53:24.896Z,19.46
2023-09-19T01:55:54.356Z,19.44
2023-09-19T01:58:39.254Z,19.39
2023-09-19T02:01:09.540Z,19.38
2023-09-19T02:03:41.171Z,19.39
2023-09-19T02:06:12.513Z,19.36
2023-09-19T02:08:40.607Z,19.34
2023-09-19T02:11:08.227Z,19.31
2023-09-19T02:13:36.100Z,19.31
2023-09-19T02:16:05.434Z,19.29
2023-09-19T02:18:36.004Z,19.28
2023-09-19T02:21:13.378Z,19.24
2023-09-19T02:23:42.415Z,19.21
2023-09-19T02:26:10.377Z,19.26
2023-09-19T02:28:37.953Z,19.25
2023-09-19T02:31:08.643Z,19.25
2023-09-19T02:33:36.982Z,19.26
2023-09-19T02:36:05.074Z,19.29
2023-09-19T02:38:32.817Z,19.35
2023-09-19T02:41:01.279Z,19.35
2023-09-19T02:43:29.684Z,19.40
2023-09-19T02:45:58.309Z,19.37
2023-09-19T02:48:26.644Z,19.37
2023-09-19T02:50:54.444Z,19.42
2023-09-19T02:53:22.218Z,19.41
2023-09-19T02:55:49.938Z,19.45
2023-09-19T02:58:19.877Z,19.45
2023-09-19T03:00:49.005Z,19.45
2023-09-19T03:03:17.753Z,19.43
2023-09-19T03:05:48.325Z,19.38
2023-09-19T03:08:18.352Z,19.32
2023-09-19T03:10:51.473Z,19.33
2023-09-19T03:13:19.205Z,19.35
2023-09-19T03:15:51.771Z,19.36
2023-09-19T03:18:24.708Z,19.37
2023-09-19T03:20:56.770Z,19.32
2023-09-19T03:23:24.998Z,19.33
2023-09-19T03:25:53.614Z,19.29
2023-09-19T03:28:22.822Z,19.26
2023-09-19T03:31:05.778Z,19.26
2023-09-19T03:33:36.102Z,19.25
2023-09-19T03:36:08.261Z,19.23
2023-09-19T03:38:36.316Z,19.25
2023-09-19T03:41:04.450Z,19.26
2023-09-19T03:43:34.186Z,19.22
2023-09-19T03:46:08.707Z,19.20
2023-09-19T03:48:37.329Z,19.19
2023-09-19T03:51:05.641Z,19.21
2023-09-19T03:53:33.421Z,19.16
2023-09-19T03:56:01.250Z,19.17
2023-09-19T03:58:30.468Z,19.18
2023-09-19T04:00:59.202Z,19.19
2023-09-19T04:03:36.611Z,19.21
2023-09-19T04:06:04.537Z,19.23
2023-09-19T04:08:32.403Z,19.27
2023-09-19T04:10:59.961Z,19.28
2023-09-19T04:13:27.720Z,19.27
2023-09-19T04:15:55.603Z,19.25
2023-09-19T04:18:24.780Z,19.26
2023-09-19T04:20:52.662Z,19.28
2023-09-19T04:23:23.199Z,19.31
2023-09-19T04:25:51.573Z,19.35
2023-09-19T04:28:19.963Z,19.42
2023-09-19T04:30:47.700Z,19.44
2023-09-19T04:33:15.697Z,19.44
2023-09-19T04:35:43.777Z,19.46
2023-09-19T04:38:11.393Z,19.50
2023-09-19T04:40:40.909Z,19.50
2023-09-19T04:43:08.825Z,19.53
2023-09-19T04:45:36.471Z,19.51
2023-09-19T04:48:04.469Z,19.39
2023-09-19T04:50:32.260Z,19.28
2023-09-19T04:53:00.178Z,19.19
2023-09-19T04:55:28.311Z,19.15
2023-09-19T04:57:56.300Z,19.12
2023-09-19T05:00:25.724Z,19.08
2023-09-19T05:02:57.670Z,18.94
2023-09-19T05:05:26.956Z,18.90
2023-09-19T05:07:57.751Z,18.78
2023-09-19T05:10:26.113Z,18.74
2023-09-19T05:12:56.737Z,18.66
2023-09-19T05:15:24.514Z,18.60
2023-09-19T05:17:57.949Z,18.58
2023-09-19T05:20:34.449Z,18.58
2023-09-19T05:23:10.110Z,18.54
2023-09-19T05:25:39.206Z,18.50
2023-09-19T05:28:08.504Z,18.50
2023-09-19T05:30:37.570Z,18.53
2023-09-19T05:33:06.628Z,18.41
2023-09-19T05:35:34.481Z,18.33
2023-09-19T05:38:02.125Z,18.20
2023-09-19T05:40:29.730Z,18.09
2023-09-19T05:42:57.420Z,18.06
2023-09-19T05:45:25.840Z,17.92
2023-09-19T05:48:05.192Z,17.82
2023-09-19T05:50:33.070Z,17.93
2023-09-19T05:53:00.871Z,17.99
2023-09-19T05:55:29.660Z,18.01
2023-09-19T05:57:57.626Z,18.05
2023-09-19T06:00:28.380Z,18.14
2023-09-19T06:02:58.605Z,18.18
2023-09-19T06:05:28.167Z,18.19
2023-09-19T06:07:55.937Z,18.14
2023-09-19T06:10:23.842Z,18.19
2023-09-19T06:12:51.729Z,18.16
2023-09-19T06:15:25.898Z,18.10
2023-09-19T06:17:56.546Z,18.15
2023-09-19T06:20:26.621Z,18.17
2023-09-19T06:22:54.828Z,18.12
2023-09-19T06:25:23.289Z,18.13
2023-09-19T06:27:54.696Z,18.03
2023-09-19T06:30:25.089Z,18.05
2023-09-19T06:33:02.284Z,18.05
2023-09-19T06:35:33.879Z,18.14
2023-09-19T06:38:05.555Z,18.18
2023-09-19T06:40:35.331Z,18.23
2023-09-19T06:43:03.501Z,18.28
2023-09-19T06:45:33.077Z,18.29
2023-09-19T06:48:01.377Z,18.30
2023-09-19T06:50:29.446Z,18.33
2023-09-19T06:52:58.996Z,18.39
2023-09-19T06:55:32.695Z,18.39
2023-09-19T06:58:01.024Z,18.34
2023-09-19T07:00:29.640Z,18.30
2023-09-19T07:03:05.775Z,18.25
2023-09-19T07:05:34.718Z,18.28
2023-09-19T07:08:02.434Z,18.30
2023-09-19T07:10:31.685Z,18.32
2023-09-19T07:13:10.261Z,18.32
2023-09-19T07:15:47.414Z,18.35
2023-09-19T07:18:18.003Z,18.36
2023-09-19T07:20:50.545Z,18.36
2023-09-19T07:23:27.078Z,18.30
2023-09-19T07:25:58.391Z,18.31
2023-09-19T07:28:25.995Z,18.28
2023-09-19T07:30:53.797Z,18.34
2023-09-19T07:33:21.582Z,18.36
2023-09-19T07:35:49.460Z,18.43
2023-09-19T07:38:17.857Z,18.45
2023-09-19T07:40:45.574Z,18.42
2023-09-19T07:43:13.291Z,18.49
2023-09-19T07:45:41.033Z,18.49
2023-09-19T07:48:15.249Z,18.53
2023-09-19T07:50:44.635Z,18.63
2023-09-19T07:53:14.609Z,18.71
2023-09-19T07:55:42.518Z,18.68
2023-09-19T07:58:10.179Z,18.75
2023-09-19T08:00:37.779Z,18.68
2023-09-19T08:03:15.858Z,18.76
2023-09-19T08:05:46.255Z,18.83
2023-09-19T08:08:15.840Z,18.88
2023-09-19T08:10:46.717Z,18.95
2023-09-19T08:13:15.514Z,19.00
2023-09-19T08:15:46.650Z,18.98
2023-09-19T08:18:15.771Z,19.05
2023-09-19T08:20:43.862Z,19.12
2023-09-19T08:23:11.477Z,19.11
2023-09-19T08:25:40.938Z,19.20
2023-09-19T08:28:13.508Z,19.24
2023-09-19T08:30:42.075Z,19.20
2023-09-19T08:33:09.887Z,19.19
2023-09-19T08:35:40.802Z,19.06
2023-09-19T08:38:08.454Z,19.05
2023-09-19T08:40:41.427Z,19.12
2023-09-19T08:43:09.564Z,19.15
2023-09-19T08:45:38.262Z,19.28
2023-09-19T08:48:26.424Z,19.36
2023-09-19T08:51:18.893Z,19.47
2023-09-19T08:53:55.608Z,19.57
2023-09-19T08:56:25.621Z,19.63
2023-09-19T08:59:01.086Z,19.72
2023-09-19T09:01:34.025Z,19.84
2023-09-19T09:04:03.618Z,19.85
2023-09-19T09:06:33.791Z,19.88
2023-09-19T09:09:01.670Z,19.74
2023-09-19T09:11:29.862Z,19.74
2023-09-19T09:13:58.735Z,19.85
2023-09-19T09:16:27.372Z,19.86
2023-09-19T09:18:55.878Z,19.96
2023-09-19T09:21:26.731Z,19.99
2023-09-19T09:23:55.007Z,19.96
2023-09-19T09:26:55.998Z,19.89
2023-09-19T09:29:50.873Z,19.81
2023-09-19T09:32:26.723Z,19.87
2023-09-19T09:35:02.106Z,20.05
2023-09-19T09:37:33.230Z,20.20
2023-09-19T09:40:15.546Z,20.27
2023-09-19T09:42:47.313Z,20.40
2023-09-19T09:45:34.081Z,20.45
2023-09-19T09:48:05.098Z,20.45
2023-09-19T09:50:56.875Z,20.37
2023-09-19T09:53:29.646Z,20.33
2023-09-19T09:56:08.025Z,20.34
2023-09-19T09:58:57.117Z,20.36
2023-09-19T10:01:27.936Z,20.46
2023-09-19T10:04:01.425Z,20.50
2023-09-19T10:06:48.008Z,20.52
2023-09-19T10:09:18.501Z,20.59
2023-09-19T10:12:09.495Z,20.67
2023-09-19T10:14:42.735Z,20.61
2023-09-19T10:17:13.553Z,20.64
2023-09-19T10:19:53.956Z,20.59
2023-09-19T10:22:23.909Z,20.65
2023-09-19T10:25:02.794Z,20.63
2023-09-19T10:27:37.334Z,20.62
2023-09-19T10:30:09.413Z,20.66
2023-09-19T10:32:40.956Z,20.61
2023-09-19T10:35:09.778Z,20.72
2023-09-19T10:37:39.227Z,20.73
2023-09-19T10:40:13.089Z,20.71
2023-09-19T10:42:43.515Z,20.74
2023-09-19T10:45:15.095Z,20.79
2023-09-19T10:47:44.014Z,20.74
2023-09-19T10:50:27.890Z,20.82
2023-09-19T10:53:07.443Z,20.74
2023-09-19T10:55:37.621Z,20.78
2023-09-19T10:58:16.042Z,20.88
2023-09-19T11:01:02.706Z,20.77
2023-09-19T11:03:34.376Z,20.78
2023-09-19T11:06:14.730Z,20.74
2023-09-19T11:09:16.980Z,20.84
2023-09-19T11:11:54.490Z,20.85
2023-09-19T11:14:25.334Z,20.98
2023-09-19T11:17:08.451Z,20.95
2023-09-19T11:20:14.327Z,21.01
2023-09-19T11:22:58.664Z,21.15
2023-09-19T11:25:44.209Z,21.03
2023-09-19T11:28:16.591Z,21.11
2023-09-19T11:30:47.091Z,21.07
2023-09-19T11:33:24.822Z,21.23
2023-09-19T11:36:19.449Z,21.27
2023-09-19T11:38:47.569Z,21.28
2023-09-19T11:41:27.737Z,21.20
2023-09-19T11:44:02.102Z,21.28
2023-09-19T11:46:35.181Z,21.38
2023-09-19T11:49:13.629Z,21.43
2023-09-19T11:51:45.913Z,21.49
2023-09-19T11:54:19.692Z,21.53
2023-09-19T11:56:51.645Z,21.53
2023-09-19T11:59:29.361Z,21.54
2023-09-19T12:02:09.879Z,21.69
2023-09-19T12:04:49.283Z,21.72
2023-09-19T12:07:17.914Z,21.68
2023-09-19T12:09:49.056Z,21.70
2023-09-19T12:12:36.795Z,21.81
2023-09-19T12:15:05.130Z,21.98
2023-09-19T12:17:45.836Z,21.97
2023-09-19T12:20:17.781Z,22.00
2023-09-19T12:22:47.929Z,22.01
2023-09-19T12:25:19.275Z,22.10
2023-09-19T12:27:54.521Z,22.03
2023-09-19T12:30:29.287Z,22.13
2023-09-19T12:32:59.691Z,22.19
2023-09-19T12:35:36.001Z,22.10
2023-09-19T12:38:08.788Z,22.26
2023-09-19T12:40:39.076Z,22.23
2023-09-19T12:43:08.370Z,22.34
2023-09-19T12:45:38.566Z,22.52
2023-09-19T12:48:35.842Z,22.65
2023-09-19T12:51:08.509Z,22.75
2023-09-19T12:53:45.184Z,22.83
2023-09-19T12:56:16.804Z,22.98
2023-09-19T12:58:55.978Z,23.03
2023-09-19T13:01:28.678Z,23.10
2023-09-19T13:04:30.685Z,23.15
2023-09-19T13:07:02.128Z,23.05
2023-09-19T13:09:35.888Z,23.07
2023-09-19T13:12:04.863Z,23.13
2023-09-19T13:14:32.597Z,23.12
2023-09-19T13:17:07.658Z,23.24
2023-09-19T13:19:55.531Z,23.32
2023-09-19T13:22:49.573Z,23.41
2023-09-19T13:25:19.894Z,23.37
2023-09-19T13:27:58.284Z,23.49
2023-09-19T13:30:30.292Z,23.37
2023-09-19T13:33:11.705Z,23.52
2023-09-19T13:35:41.998Z,23.62
2023-09-19T13:38:12.639Z,23.69
2023-09-19T13:40:43.037Z,23.82
2023-09-19T13:43:12.507Z,23.82
2023-09-19T13:45:43.133Z,23.74
2023-09-19T13:48:12.345Z,23.70
2023-09-19T13:50:43.217Z,23.68
2023-09-19T13:53:11.027Z,23.77
2023-09-19T13:55:39.001Z,23.75
2023-09-19T13:58:07.847Z,23.80
2023-09-19T14:00:35.529Z,23.89
2023-09-19T14:03:03.558Z,23.87
2023-09-19T14:05:32.454Z,23.94
2023-09-19T14:08:04.203Z,23.97
2023-09-19T14:10:32.583Z,23.65
2023-09-19T14:13:00.646Z,23.78
2023-09-19T14:15:33.415Z,23.94
2023-09-19T14:18:01.989Z,24.07
2023-09-19T14:20:31.310Z,24.17
2023-09-19T14:23:02.296Z,24.20
2023-09-19T14:25:31.299Z,24.19
2023-09-19T14:27:58.927Z,24.26
2023-09-19T14:30:26.604Z,24.11
2023-09-19T14:32:54.731Z,24.26
2023-09-19T14:35:24.074Z,24.34
2023-09-19T14:37:52.399Z,24.37
2023-09-19T14:40:20.060Z,24.43
2023-09-19T14:42:49.437Z,24.51
2023-09-19T14:45:19.262Z,24.48
2023-09-19T14:47:48.648Z,24.48
2023-09-19T14:50:16.790Z,24.38
2023-09-19T14:52:45.193Z,24.27
2023-09-19T14:55:15.521Z,24.29
2023-09-19T14:57:47.082Z,24.25
2023-09-19T15:00:15.372Z,24.24
2023-09-19T15:02:43.209Z,24.30
2023-09-19T15:05:11.378Z,24.17
2023-09-19T15:07:39.730Z,24.14
2023-09-19T15:10:10.819Z,24.15
2023-09-19T15:12:38.966Z,24.03
2023-09-19T15:15:10.528Z,23.93
2023-09-19T15:17:38.569Z,23.97
2023-09-19T15:20:08.182Z,23.92
2023-09-19T15:22:36.089Z,23.96
2023-09-19T15:25:05.130Z,24.01
2023-09-19T15:27:33.713Z,24.00
2023-09-19T15:30:03.820Z,23.92
2023-09-19T15:32:32.180Z,23.97
2023-09-19T15:34:59.852Z,24.02
2023-09-19T15:37:27.632Z,24.02
2023-09-19T15:39:55.258Z,24.01
2023-09-19T15:42:22.833Z,23.96
2023-09-19T15:44:52.886Z,23.92
2023-09-19T15:47:21.395Z,23.91
2023-09-19T15:49:50.392Z,23.91
2023-09-19T15:52:18.894Z,23.92
2023-09-19T15:54:46.507Z,23.91
2023-09-19T15:57:15.102Z,23.90
2023-09-19T15:59:42.818Z,23.91
2023-09-19T16:02:10.576Z,23.91
2023-09-19T16:04:39.571Z,23.92
2023-09-19T16:07:07.840Z,23.91
2023-09-19T16:09:36.427Z,23.84
2023-09-19T16:12:04.428Z,23.73
2023-09-19T16:14:32.187Z,23.73
2023-09-19T16:17:01.004Z,23.75
2023-09-19T16:19:28.787Z,23.78
2023-09-19T16:21:56.870Z,23.78
2023-09-19T16:24:25.085Z,23.73
2023-09-19T16:26:54.035Z,23.68
2023-09-19T16:29:25.352Z,23.65
2023-09-19T16:31:53.488Z,23.54
2023-09-19T16:34:21.150Z,23.56
2023-09-19T16:36:49.144Z,23.54
2023-09-19T16:39:16.832Z,23.51
2023-09-19T16:41:44.395Z,23.46
2023-09-19T16:44:14.607Z,23.44
2023-09-19T16:46:42.784Z,23.40
2023-09-19T16:49:10.536Z,23.33
2023-09-19T16:51:38.996Z,23.33
2023-09-19T16:54:06.748Z,23.32
2023-09-19T16:56:37.805Z,23.28
2023-09-19T16:59:06.780Z,23.25
2023-09-19T17:01:34.639Z,23.25
2023-09-19T17:04:04.031Z,23.18
2023-09-19T17:06:32.133Z,23.17
2023-09-19T17:08:59.718Z,23.12
2023-09-19T17:11:27.537Z,23.09
2023-09-19T17:13:58.113Z,23.06
2023-09-19T17:16:29.645Z,23.04
2023-09-19T17:18:58.424Z,23.00
2023-09-19T17:21:28.052Z,22.97
2023-09-19T17:23:56.540Z,22.94
2023-09-19T17:26:26.138Z,22.91
2023-09-19T17:28:54.931Z,22.85
2023-09-19T17:31:27.278Z,22.80
2023-09-19T17:33:55.468Z,22.73
2023-09-19T17:36:26.101Z,22.67
2023-09-19T17:38:59.962Z,22.62
2023-09-19T17:41:28.397Z,22.58
2023-09-19T17:43:59.008Z,22.51
2023-09-19T17:46:29.899Z,22.43
2023-09-19T17:49:00.736Z,22.35
2023-09-19T17:51:29.127Z,22.30
2023-09-19T17:54:00.055Z,22.25
2023-09-19T17:56:28.455Z,22.20
2023-09-19T17:58:57.614Z,22.14
2023-09-19T18:01:28.806Z,22.09
2023-09-19T18:04:01.641Z,22.03
2023-09-19T18:06:29.999Z,21.99
2023-09-19T18:08:57.975Z,21.96
2023-09-19T18:11:27.341Z,21.94
2023-09-19T18:13:58.400Z,21.91
2023-09-19T18:16:32.930Z,21.87
2023-09-19T18:19:03.541Z,21.83
2023-09-19T18:21:34.100Z,21.80
2023-09-19T18:24:04.771Z,21.76
2023-09-19T18:26:33.875Z,21.74
2023-09-19T18:29:01.452Z,21.72
2023-09-19T18:31:29.969Z,21.70
2023-09-19T18:33:58.470Z,21.69
2023-09-19T18:36:29.151Z,21.67
2023-09-19T18:38:57.539Z,21.61
2023-09-19T18:41:25.249Z,21.57
2023-09-19T18:43:52.926Z,21.56
2023-09-19T18:46:20.601Z,21.52
2023-09-19T18:48:48.989Z,21.54
2023-09-19T18:51:19.333Z,21.53
2023-09-19T18:54:05.315Z,21.54
2023-09-19T18:56:38.602Z,21.53
2023-09-19T18:59:06.847Z,21.46
2023-09-19T19:01:36.282Z,21.39
2023-09-19T19:04:04.019Z,21.34
2023-09-19T19:06:31.884Z,21.29
2023-09-19T19:09:00.214Z,21.27
2023-09-19T19:11:31.094Z,21.23
2023-09-19T19:13:59.104Z,21.19
2023-09-19T19:16:27.791Z,21.17
2023-09-19T19:18:55.797Z,21.12
2023-09-19T19:21:23.486Z,21.07
2023-09-19T19:23:53.178Z,20.99
2023-09-19T19:26:24.460Z,20.95
2023-09-19T19:28:52.692Z,20.94
2023-09-19T19:31:22.957Z,20.87
2023-09-19T19:33:53.987Z,20.77
2023-09-19T19:36:23.365Z,20.69
2023-09-19T19:38:51.069Z,20.63
2023-09-19T19:41:19.094Z,20.58
2023-09-19T19:43:46.923Z,20.56
2023-09-19T19:46:15.201Z,20.52
2023-09-19T19:48:43.134Z,20.47
2023-09-19T19:51:11.994Z,20.44
2023-09-19T19:53:39.915Z,20.42
2023-09-19T19:56:07.917Z,20.36
2023-09-19T19:58:36.818Z,20.31
2023-09-19T20:01:07.698Z,20.29
2023-09-19T20:03:39.442Z,20.30
2023-09-19T20:06:07.545Z,20.29
2023-09-19T20:08:36.473Z,20.26
2023-09-19T20:11:09.500Z,20.27
2023-09-19T20:13:43.371Z,20.25
2023-09-19T20:16:13.751Z,20.25
2023-09-19T20:18:41.940Z,20.23
2023-09-19T20:21:11.417Z,20.17
2023-09-19T20:23:39.832Z,20.16
2023-09-19T20:26:07.806Z,20.16
2023-09-19T20:28:35.749Z,20.14
2023-09-19T20:31:12.200Z,20.12
2023-09-19T20:33:40.298Z,20.11
2023-09-19T20:36:11.117Z,20.06
2023-09-19T20:38:39.670Z,20.02
2023-09-19T20:41:12.115Z,20.08
2023-09-19T20:43:42.047Z,20.10
2023-09-19T20:46:12.292Z,20.08
2023-09-19T20:48:44.393Z,20.12
2023-09-19T20:51:14.445Z,20.11
2023-09-19T20:53:46.800Z,20.13
2023-09-19T20:56:16.139Z,20.09
2023-09-19T20:58:44.996Z,20.02
2023-09-19T21:01:13.230Z,20.01
2023-09-19T21:03:41.170Z,20.00
2023-09-19T21:06:14.400Z,19.97
2023-09-19T21:08:46.169Z,19.97
2023-09-19T21:11:16.769Z,19.90
2023-09-19T21:13:46.441Z,19.91
2023-09-19T21:16:17.056Z,19.85
2023-09-19T21:18:46.797Z,19.85
2023-09-19T21:21:15.096Z,19.85
2023-09-19T21:23:45.075Z,19.74
2023-09-19T21:26:14.961Z,19.74
2023-09-19T21:28:45.160Z,19.73
2023-09-19T21:31:15.585Z,19.68
2023-09-19T21:33:44.354Z,19.67
2023-09-19T21:36:23.937Z,19.63
2023-09-19T21:38:51.969Z,19.68
2023-09-19T21:41:20.872Z,19.72
2023-09-19T21:43:52.559Z,19.71
2023-09-19T21:46:21.568Z,19.73
2023-09-19T21:48:54.784Z,19.68
2023-09-19T21:51:23.301Z,19.55
2023-09-19T21:53:50.821Z,19.53
2023-09-19T21:56:19.315Z,19.56
2023-09-19T21:58:47.291Z,19.52
2023-09-19T22:01:19.018Z,19.51
2023-09-19T22:03:46.830Z,19.50
2023-09-19T22:06:15.014Z,19.42
2023-09-19T22:08:42.868Z,19.42
2023-09-19T22:11:11.800Z,19.37
2023-09-19T22:13:43.270Z,19.37
2023-09-19T22:16:19.006Z,19.33
2023-09-19T22:18:47.764Z,19.31
2023-09-19T22:21:23.262Z,19.31
2023-09-19T22:23:54.256Z,19.25
2023-09-19T22:26:25.711Z,19.23
2023-09-19T22:28:56.360Z,19.24
2023-09-19T22:31:39.654Z,19.21
2023-09-19T22:34:07.775Z,19.18
2023-09-19T22:36:45.155Z,19.18
2023-09-19T22:39:17.640Z,19.17
2023-09-19T22:41:46.796Z,19.23
2023-09-19T22:44:14.889Z,19.23
2023-09-19T22:46:43.832Z,19.18
2023-09-19T22:49:18.299Z,19.12
2023-09-19T22:51:50.342Z,19.08
2023-09-19T22:54:27.935Z,19.08
2023-09-19T22:56:56.526Z,19.06
2023-09-19T22:59:24.405Z,19.05
2023-09-19T23:01:53.565Z,19.02
2023-09-19T23:04:23.054Z,19.00
2023-09-19T23:06:53.235Z,18.97
2023-09-19T23:09:25.131Z,18.98
2023-09-19T23:12:17.845Z,18.93
2023-09-19T23:14:45.661Z,18.89
2023-09-19T23:17:14.406Z,18.85
2023-09-19T23:19:49.879Z,18.84
2023-09-19T23:22:17.581Z,18.82
2023-09-19T23:25:02.183Z,18.81
2023-09-19T23:27:35.090Z,18.79
2023-09-19T23:30:09.421Z,18.78
2023-09-19T23:32:37.330Z,18.76
2023-09-19T23:35:06.019Z,18.67
2023-09-19T23:37:33.698Z,18.70
2023-09-19T23:40:01.989Z,18.70
2023-09-19T23:42:32.685Z,18.72
2023-09-19T23:45:01.482Z,18.67
2023-09-19T23:47:29.377Z,18.62
2023-09-19T23:49:58.619Z,18.58
2023-09-19T23:52:27.988Z,18.54
2023-09-19T23:55:00.585Z,18.48
2023-09-19T23:57:28.782Z,18.46
2023-09-19T23:59:56.343Z,18.41
